Time;durP1;ratioP1;P1;durP2;ratioP2;P2;SDS_P1;SDS_P2;PMS_P1;PMS_P2;Temp;Humidity;BMP_temperature;BMP_pressure;BME280_temperature;BME280_humidity;BME280_pressure;Samples;Min_cycle;Max_cycle;Signal;HPM_P1;HPM_P2
2023/04/02 00:02:17;;;;;;;0.95;0.40;;;;;;;;;;5051738;28;20029;-72
2023/04/02 00:04:44;;;;;;;0.80;0.68;;;;;;;;;;5051700;28;20024;-72
2023/04/02 00:07:32;;;;;;;0.90;0.60;;;;;;;;;;5051882;28;20032;-72
2023/04/02 00:09:59;;;;;;;2.05;0.60;;;;;;;;;;5051347;28;20047;-72
2023/04/02 00:12:25;;;;;;;1.38;0.70;;;;;;;;;;5051704;28;20470;-72
2023/04/02 00:14:56;;;;;;;1.15;0.60;;;;;;;;;;5051515;28;20032;-71
2023/04/02 00:17:24;;;;;;;6.10;1.80;;;;;;;;;;5052176;28;20497;-72
2023/04/02 00:19:58;;;;;;;2.88;1.00;;;;;;;;;;5055210;28;20025;-72
2023/04/02 00:22:26;;;;;;;2.13;0.77;;;;;;;;;;5055563;28;20036;-72
2023/04/02 00:24:54;;;;;;;0.80;0.70;;;;;;;;;;5055101;28;20503;-72
2023/04/02 00:27:21;;;;;;;0.68;0.40;;;;;;;;;;5055174;28;20280;-72
2023/04/02 00:29:52;;;;;;;2.00;0.50;;;;;;;;;;5055094;28;20051;-72
2023/04/02 00:32:18;;;;;;;;;;;;;;;;;;5055486;28;20037;-72
2023/04/02 00:34:44;;;;;;;0.45;0.40;;;;;;;;;;5055475;28;19909;-72
2023/04/02 00:37:17;;;;;;;0.88;0.50;;;;;;;;;;5054984;28;20032;-72
2023/04/02 00:39:43;;;;;;;0.88;0.45;;;;;;;;;;5054960;28;20028;-73
2023/04/02 00:42:12;;;;;;;1.10;0.50;;;;;;;;;;5055106;28;20066;-72
2023/04/02 00:44:41;;;;;;;1.27;0.82;;;;;;;;;;5054749;28;20082;-72
2023/04/02 00:47:13;;;;;;;1.75;0.70;;;;;;;;;;5054728;28;20035;-72
2023/04/02 00:49:40;;;;;;;3.85;2.00;;;;;;;;;;5054714;28;20017;-72
2023/04/02 00:52:11;;;;;;;2.38;1.20;;;;;;;;;;5055039;28;20040;-72
2023/04/02 00:54:40;;;;;;;2.13;0.95;;;;;;;;;;5054523;28;20503;-72
2023/04/02 00:57:15;;;;;;;2.63;1.25;;;;;;;;;;5053462;28;20047;-72
2023/04/02 00:59:50;;;;;;;2.17;1.08;;;;;;;;;;5054554;28;20013;-72
2023/04/02 01:02:17;;;;;;;3.05;1.13;;;;;;;;;;5054591;28;20023;-72
2023/04/02 01:05:13;;;;;;;1.17;0.80;;;;;;;;;;5054494;28;20066;-72
2023/04/02 01:07:40;;;;;;;1.08;0.50;;;;;;;;;;5049417;28;20037;-72
2023/04/02 01:10:25;;;;;;;3.70;1.50;;;;;;;;;;5054559;28;20024;-72
2023/04/02 01:13:11;;;;;;;0.60;0.60;;;;;;;;;;5054362;28;20025;-72
2023/04/02 01:15:38;;;;;;;1.00;0.80;;;;;;;;;;5032434;28;20044;-72
2023/04/02 01:18:30;;;;;;;1.15;0.50;;;;;;;;;;5032281;28;20049;-72
2023/04/02 01:20:56;;;;;;;4.03;1.20;;;;;;;;;;5032123;28;20043;-73
2023/04/02 01:23:45;;;;;;;1.50;1.20;;;;;;;;;;5031749;28;20060;-72
2023/04/02 01:26:30;;;;;;;1.17;0.50;;;;;;;;;;5024590;28;20060;-72
2023/04/02 01:28:56;;;;;;;1.90;0.68;;;;;;;;;;5031541;28;20032;-73
2023/04/02 01:31:23;;;;;;;2.53;0.90;;;;;;;;;;5031885;28;20025;-72
2023/04/02 01:33:49;;;;;;;1.23;0.60;;;;;;;;;;5032088;28;20041;-72
2023/04/02 01:36:30;;;;;;;4.78;1.10;;;;;;;;;;5031542;28;20063;-72
2023/04/02 01:39:20;;;;;;;4.07;1.48;;;;;;;;;;5032013;28;20034;-72
2023/04/02 01:41:53;;;;;;;5.95;1.00;;;;;;;;;;4972712;28;20127;-73
2023/04/02 01:44:39;;;;;;;3.10;0.80;;;;;;;;;;4972708;28;20031;-72
2023/04/02 01:47:10;;;;;;;5.38;1.15;;;;;;;;;;4972966;28;20085;-73
2023/04/02 01:49:36;;;;;;;3.33;0.70;;;;;;;;;;4972805;28;20027;-73
2023/04/02 01:52:02;;;;;;;5.65;1.23;;;;;;;;;;4972444;28;20049;-72
2023/04/02 01:54:29;;;;;;;6.85;1.50;;;;;;;;;;4972872;28;20365;-72
2023/04/02 01:56:58;;;;;;;6.82;1.13;;;;;;;;;;4972693;28;20049;-72
2023/04/02 01:59:25;;;;;;;4.25;0.98;;;;;;;;;;4972666;28;20031;-73
2023/04/02 02:01:51;;;;;;;9.07;1.52;;;;;;;;;;4972447;28;20041;-72
2023/04/02 02:04:18;;;;;;;11.40;1.50;;;;;;;;;;4972358;28;20537;-72
2023/04/02 02:06:45;;;;;;;7.97;1.10;;;;;;;;;;4972330;28;20092;-72
2023/04/02 02:09:29;;;;;;;4.82;1.13;;;;;;;;;;4972455;28;20031;-72
2023/04/02 02:12:01;;;;;;;4.10;1.15;;;;;;;;;;4972350;28;20034;-73
2023/04/02 02:14:28;;;;;;;3.72;0.90;;;;;;;;;;4972278;28;20467;-72
2023/04/02 02:16:56;;;;;;;4.40;0.82;;;;;;;;;;4972401;28;20039;-73
2023/04/02 02:19:31;;;;;;;5.00;0.93;;;;;;;;;;5018004;28;20037;-72
2023/04/02 02:22:06;;;;;;;2.80;1.08;;;;;;;;;;5032857;28;20613;-72
2023/04/02 02:24:34;;;;;;;6.25;0.90;;;;;;;;;;5033169;28;20098;-72
2023/04/02 02:27:26;;;;;;;6.43;1.05;;;;;;;;;;5033052;28;20025;-72
2023/04/02 02:30:06;;;;;;;5.07;1.13;;;;;;;;;;5030576;28;20037;-70
2023/04/02 02:32:33;;;;;;;3.15;0.80;;;;;;;;;;5030405;28;20037;-72
2023/04/02 02:35:15;;;;;;;6.53;1.33;;;;;;;;;;5030450;28;20034;-72
2023/04/02 02:37:45;;;;;;;6.53;1.10;;;;;;;;;;5030383;28;20038;-72
2023/04/02 02:40:15;;;;;;;6.43;1.13;;;;;;;;;;5030147;28;20401;-72
2023/04/02 02:42:46;;;;;;;7.55;1.23;;;;;;;;;;5030498;28;20040;-72
2023/04/02 02:45:14;;;;;;;3.58;0.95;;;;;;;;;;5030667;28;20025;-72
2023/04/02 02:47:42;;;;;;;5.53;0.95;;;;;;;;;;5030447;28;20453;-72
2023/04/02 02:50:12;;;;;;;4.68;1.10;;;;;;;;;;5030284;28;20029;-72
2023/04/02 02:52:38;;;;;;;7.15;1.02;;;;;;;;;;5030277;28;20025;-72
2023/04/02 02:55:12;;;;;;;5.30;1.05;;;;;;;;;;5030585;28;20037;-73
2023/04/02 02:57:42;;;;;;;4.72;0.93;;;;;;;;;;5030247;28;20494;-72
2023/04/02 03:00:12;;;;;;;3.65;1.02;;;;;;;;;;5042321;28;20078;-72
2023/04/02 03:02:39;;;;;;;2.97;0.95;;;;;;;;;;5050044;28;20508;-72
2023/04/02 03:05:06;;;;;;;4.20;0.93;;;;;;;;;;5050000;28;20550;-72
2023/04/02 03:07:33;;;;;;;6.05;0.80;;;;;;;;;;5036396;28;20033;-72
2023/04/02 03:10:20;;;;;;;3.25;0.57;;;;;;;;;;5032554;28;20466;-73
2023/04/02 03:12:58;;;;;;;4.15;0.80;;;;;;;;;;5032460;28;20043;-72
2023/04/02 03:15:25;;;;;;;5.05;0.95;;;;;;;;;;5032482;28;20025;-72
2023/04/02 03:17:54;;;;;;;6.47;1.10;;;;;;;;;;5031717;28;20021;-72
2023/04/02 03:20:23;;;;;;;10.70;1.00;;;;;;;;;;5032033;28;20024;-72
2023/04/02 03:22:57;;;;;;;5.82;1.00;;;;;;;;;;5032301;28;20033;-72
2023/04/02 03:25:43;;;;;;;4.25;0.80;;;;;;;;;;5032223;28;20033;-72
2023/04/02 03:28:16;;;;;;;6.18;1.27;;;;;;;;;;5010199;28;20516;-73
2023/04/02 03:30:58;;;;;;;4.47;1.15;;;;;;;;;;5010093;28;20046;-72
2023/04/02 03:33:27;;;;;;;5.93;1.20;;;;;;;;;;5010099;28;20048;-72
2023/04/02 03:36:02;;;;;;;7.35;1.20;;;;;;;;;;5010227;28;20033;-73
2023/04/02 03:38:34;;;;;;;10.18;1.05;;;;;;;;;;5010036;28;20538;-72
2023/04/02 03:41:13;;;;;;;6.82;1.27;;;;;;;;;;5010280;28;20025;-72
2023/04/02 03:43:42;;;;;;;6.65;1.15;;;;;;;;;;5009889;28;20030;-72
2023/04/02 03:46:32;;;;;;;8.98;1.63;;;;;;;;;;5010179;28;20533;-72
2023/04/02 03:49:03;;;;;;;6.78;1.40;;;;;;;;;;4970645;28;20046;-72
2023/04/02 03:51:29;;;;;;;7.47;1.20;;;;;;;;;;4971244;28;20046;-72
2023/04/02 03:53:56;;;;;;;9.70;1.45;;;;;;;;;;4974234;28;20027;-72
2023/04/02 03:56:26;;;;;;;6.75;1.50;;;;;;;;;;4974618;28;20035;-72
2023/04/02 03:59:15;;;;;;;6.20;1.47;;;;;;;;;;4974792;28;20119;-72
2023/04/02 04:01:47;;;;;;;6.97;1.08;;;;;;;;;;4964773;28;20035;-73
2023/04/02 04:04:16;;;;;;;9.02;1.40;;;;;;;;;;4976396;28;20514;-72
2023/04/02 04:06:44;;;;;;;5.72;1.13;;;;;;;;;;4994110;28;20414;-71
2023/04/02 04:09:16;;;;;;;6.75;1.60;;;;;;;;;;4994047;28;20022;-72
2023/04/02 04:11:49;;;;;;;8.65;1.42;;;;;;;;;;4994168;28;20045;-72
2023/04/02 04:14:28;;;;;;;6.75;1.17;;;;;;;;;;4994087;28;20038;-72
2023/04/02 04:16:59;;;;;;;6.88;1.23;;;;;;;;;;4993602;28;20585;-73
2023/04/02 04:19:26;;;;;;;;;;;;;;;;;;4994414;28;20038;-73
2023/04/02 04:21:56;;;;;;;9.05;1.38;;;;;;;;;;4993774;28;19905;-72
2023/04/02 04:24:24;;;;;;;3.97;1.30;;;;;;;;;;4993682;28;20414;-73
2023/04/02 04:27:17;;;;;;;7.15;1.27;;;;;;;;;;5030126;28;20034;-72
2023/04/02 04:29:52;;;;;;;7.13;1.40;;;;;;;;;;5012906;28;20050;-72
2023/04/02 04:32:32;;;;;;;3.85;0.98;;;;;;;;;;5013002;28;20444;-72
2023/04/02 04:35:03;;;;;;;3.90;0.95;;;;;;;;;;5013457;28;20041;-72
2023/04/02 04:37:37;;;;;;;8.15;1.80;;;;;;;;;;5013017;28;20045;-72
2023/04/02 04:40:21;;;;;;;9.43;1.73;;;;;;;;;;5013051;28;20037;-73
2023/04/02 04:42:49;;;;;;;8.30;1.40;;;;;;;;;;5013028;28;20025;-72
2023/04/02 04:45:34;;;;;;;5.40;0.98;;;;;;;;;;5012667;28;20033;-72
2023/04/02 04:48:06;;;;;;;4.88;1.15;;;;;;;;;;5012943;28;20406;-73
2023/04/02 04:50:34;;;;;;;6.18;0.85;;;;;;;;;;5013070;28;20022;-72
2023/04/02 04:53:08;;;;;;;4.40;0.70;;;;;;;;;;5012761;28;20046;-72
2023/04/02 04:55:34;;;;;;;4.60;0.90;;;;;;;;;;5012710;28;20037;-72
2023/04/02 04:58:04;;;;;;;2.08;0.73;;;;;;;;;;5012569;28;20145;-72
2023/04/02 05:00:40;;;;;;;3.33;0.70;;;;;;;;;;5027077;28;20041;-72
2023/04/02 05:03:12;;;;;;;4.55;1.23;;;;;;;;;;5031815;28;20034;-72
2023/04/02 05:05:39;;;;;;;5.63;0.90;;;;;;;;;;5032550;28;20044;-73
2023/04/02 05:08:29;;;;;;;3.30;0.75;;;;;;;;;;5034708;28;20037;-72
2023/04/02 05:11:01;;;;;;;4.03;0.80;;;;;;;;;;5031453;28;20033;-72
2023/04/02 05:13:33;;;;;;;6.10;1.33;;;;;;;;;;5034763;28;20036;-72
2023/04/02 05:16:23;;;;;;;5.95;0.98;;;;;;;;;;5033965;28;20022;-72
2023/04/02 05:18:57;;;;;;;4.22;1.15;;;;;;;;;;5034376;28;20018;-72
2023/04/02 05:21:33;;;;;;;5.68;1.10;;;;;;;;;;5034607;28;20022;-73
2023/04/02 05:24:17;;;;;;;6.32;1.23;;;;;;;;;;5034515;28;20036;-72
2023/04/02 05:26:46;;;;;;;4.88;0.90;;;;;;;;;;5034510;28;20029;-72
2023/04/02 05:29:21;;;;;;;4.78;0.93;;;;;;;;;;5033861;28;20060;-72
2023/04/02 05:31:58;;;;;;;3.88;0.90;;;;;;;;;;5033907;28;20044;-72
2023/04/02 05:34:29;;;;;;;6.32;1.17;;;;;;;;;;5032634;28;20470;-72
2023/04/02 05:36:56;;;;;;;6.35;1.20;;;;;;;;;;5034319;28;20033;-72
2023/04/02 05:39:23;;;;;;;6.32;1.10;;;;;;;;;;5033990;28;20013;-72
2023/04/02 05:41:57;;;;;;;6.15;1.13;;;;;;;;;;5034120;28;20029;-72
2023/04/02 05:44:26;;;;;;;2.60;1.08;;;;;;;;;;5033960;28;20017;-72
2023/04/02 05:46:52;;;;;;;7.25;1.60;;;;;;;;;;5033937;28;20027;-72
2023/04/02 05:49:45;;;;;;;4.55;0.98;;;;;;;;;;5049126;28;20033;-72
2023/04/02 05:52:15;;;;;;;6.00;1.27;;;;;;;;;;5032548;28;20034;-72
2023/04/02 05:54:46;;;;;;;3.70;1.00;;;;;;;;;;5033857;28;20033;-73
2023/04/02 05:57:15;;;;;;;5.72;1.50;;;;;;;;;;5033329;28;20401;-72
2023/04/02 05:59:44;;;;;;;9.27;1.70;;;;;;;;;;5041612;28;20027;-72
2023/04/02 06:02:25;;;;;;;6.88;1.65;;;;;;;;;;5053500;28;20031;-72
2023/04/02 06:04:51;;;;;;;6.93;2.13;;;;;;;;;;5053627;28;20021;-72
2023/04/02 06:07:21;;;;;;;8.30;2.20;;;;;;;;;;5053175;28;20025;-72
2023/04/02 06:09:53;;;;;;;10.13;1.70;;;;;;;;;;5053451;28;20028;-73
2023/04/02 06:12:26;;;;;;;3.67;1.15;;;;;;;;;;5053109;28;20503;-72
2023/04/02 06:14:52;;;;;;;5.75;1.40;;;;;;;;;;5052498;28;20401;-72
2023/04/02 06:17:19;;;;;;;7.10;1.35;;;;;;;;;;5052856;28;20509;-72
2023/04/02 06:19:46;;;;;;;4.90;1.25;;;;;;;;;;5053176;28;20017;-72
2023/04/02 06:22:20;;;;;;;3.28;1.00;;;;;;;;;;5053367;28;20024;-72
2023/04/02 06:24:49;;;;;;;4.90;1.25;;;;;;;;;;5053402;28;20031;-72
2023/04/02 06:27:18;;;;;;;4.55;1.20;;;;;;;;;;5052777;28;20033;-72
2023/04/02 06:29:47;;;;;;;6.05;1.13;;;;;;;;;;5052870;28;20041;-72
2023/04/02 06:32:13;;;;;;;2.88;1.05;;;;;;;;;;5053021;28;20035;-72
2023/04/02 06:34:41;;;;;;;3.33;1.15;;;;;;;;;;5053035;28;20496;-72
2023/04/02 06:37:10;;;;;;;4.88;1.88;;;;;;;;;;5052642;28;20037;-72
2023/04/02 06:39:36;;;;;;;4.20;1.30;;;;;;;;;;5052757;28;20020;-72
2023/04/02 06:42:06;;;;;;;5.28;2.00;;;;;;;;;;5052381;28;20024;-73
2023/04/02 06:44:35;;;;;;;4.55;1.55;;;;;;;;;;5052610;28;20420;-72
2023/04/02 06:47:06;;;;;;;3.78;1.50;;;;;;;;;;5052489;28;20500;-72
2023/04/02 06:49:33;;;;;;;4.60;1.60;;;;;;;;;;5052727;28;20024;-72
2023/04/02 06:52:01;;;;;;;3.33;1.10;;;;;;;;;;5052333;28;20032;-72
2023/04/02 06:54:27;;;;;;;2.42;0.90;;;;;;;;;;5052679;28;20048;-72
2023/04/02 06:56:57;;;;;;;3.22;1.20;;;;;;;;;;5052078;28;20032;-72
2023/04/02 06:59:24;;;;;;;2.15;1.00;;;;;;;;;;5052276;28;20043;-72
2023/04/02 07:01:50;;;;;;;2.20;1.00;;;;;;;;;;5052469;28;20037;-72
2023/04/02 07:04:18;;;;;;;1.85;1.20;;;;;;;;;;5052796;28;20017;-73
2023/04/02 07:06:44;;;;;;;2.95;0.90;;;;;;;;;;5052327;28;20029;-72
2023/04/02 07:09:11;;;;;;;1.90;0.95;;;;;;;;;;5052132;28;20033;-72
2023/04/02 07:11:37;;;;;;;4.93;2.22;;;;;;;;;;5050927;28;20039;-72
2023/04/02 07:14:03;;;;;;;2.15;1.00;;;;;;;;;;5052138;28;20021;-73
2023/04/02 07:16:31;;;;;;;1.73;0.88;;;;;;;;;;5051999;28;20035;-73
2023/04/02 07:18:58;;;;;;;1.27;0.70;;;;;;;;;;5052319;28;20021;-72
2023/04/02 07:21:25;;;;;;;1.65;0.90;;;;;;;;;;5052399;28;20025;-72
2023/04/02 07:23:52;;;;;;;2.28;1.10;;;;;;;;;;5052023;28;20386;-72
2023/04/02 07:26:21;;;;;;;1.98;1.20;;;;;;;;;;5051528;28;20020;-72
2023/04/02 07:28:47;;;;;;;3.05;1.23;;;;;;;;;;5052023;28;20531;-73
2023/04/02 07:31:17;;;;;;;3.60;1.00;;;;;;;;;;5052048;28;20029;-72
2023/04/02 07:33:44;;;;;;;3.95;1.80;;;;;;;;;;5051865;28;20037;-72
2023/04/02 07:36:15;;;;;;;5.53;1.48;;;;;;;;;;5052131;28;20051;-72
2023/04/02 07:38:41;;;;;;;5.20;2.78;;;;;;;;;;5052075;28;20037;-72
2023/04/02 07:41:08;;;;;;;3.47;1.67;;;;;;;;;;5051692;28;20036;-72
2023/04/02 07:43:34;;;;;;;7.32;2.75;;;;;;;;;;5051781;28;20021;-72
2023/04/02 07:46:01;;;;;;;3.78;1.45;;;;;;;;;;5051680;28;20043;-72
2023/04/02 07:48:27;;;;;;;4.57;1.42;;;;;;;;;;5051294;28;20379;-72
2023/04/02 07:50:54;;;;;;;2.50;1.00;;;;;;;;;;5052218;28;20037;-72
2023/04/02 07:53:31;;;;;;;7.75;2.05;;;;;;;;;;5051828;28;20028;-72
2023/04/02 07:55:58;;;;;;;7.30;3.40;;;;;;;;;;5051884;28;20029;-72
2023/04/02 07:58:25;;;;;;;8.13;2.03;;;;;;;;;;5051586;28;20485;-73
2023/04/02 08:00:51;;;;;;;4.93;2.33;;;;;;;;;;5051972;28;20021;-72
2023/04/02 08:03:17;;;;;;;2.67;1.15;;;;;;;;;;5051673;28;20028;-72
2023/04/02 08:05:48;;;;;;;3.38;1.42;;;;;;;;;;5051886;28;20035;-72
2023/04/02 08:08:15;;;;;;;;;;;;;;;;;;5052359;28;20036;-72
2023/04/02 08:10:41;;;;;;;8.23;3.55;;;;;;;;;;5051677;28;19905;-72
2023/04/02 08:13:07;;;;;;;2.85;1.00;;;;;;;;;;5051959;28;20025;-72
2023/04/02 08:15:34;;;;;;;5.20;1.05;;;;;;;;;;5051637;28;20021;-72
2023/04/02 08:18:00;;;;;;;2.08;1.50;;;;;;;;;;5051570;28;20041;-72
2023/04/02 08:20:26;;;;;;;3.10;2.00;;;;;;;;;;5051877;28;20032;-72
2023/04/02 08:22:53;;;;;;;6.85;3.15;;;;;;;;;;5051401;28;20027;-72
2023/04/02 08:25:19;;;;;;;8.05;4.25;;;;;;;;;;5051372;28;20047;-72
2023/04/02 08:27:46;;;;;;;3.55;1.67;;;;;;;;;;5051479;28;20028;-72
2023/04/02 08:30:13;;;;;;;2.20;1.30;;;;;;;;;;5051357;28;20094;-72
2023/04/02 08:32:40;;;;;;;6.35;2.95;;;;;;;;;;5051632;28;20035;-72
2023/04/02 08:35:07;;;;;;;3.95;1.52;;;;;;;;;;5051581;28;20021;-72
2023/04/02 08:37:33;;;;;;;5.93;1.30;;;;;;;;;;5051328;28;20044;-72
2023/04/02 08:40:00;;;;;;;3.05;1.20;;;;;;;;;;5054944;28;20025;-72
2023/04/02 08:42:34;;;;;;;5.00;2.95;;;;;;;;;;5054833;28;20035;-73
2023/04/02 08:45:06;;;;;;;7.35;4.28;;;;;;;;;;5054911;28;20094;-72
2023/04/02 08:47:39;;;;;;;5.75;2.78;;;;;;;;;;5055006;28;20035;-72
2023/04/02 08:50:24;;;;;;;2.28;1.88;;;;;;;;;;5055094;28;20033;-72
2023/04/02 08:52:51;;;;;;;3.55;1.33;;;;;;;;;;5054615;28;20051;-72
2023/04/02 08:55:36;;;;;;;6.55;4.07;;;;;;;;;;5054954;28;20033;-72
2023/04/02 08:58:15;;;;;;;5.10;1.48;;;;;;;;;;5054608;28;20044;-72
2023/04/02 09:00:42;;;;;;;2.45;1.90;;;;;;;;;;5054858;28;20035;-72
2023/04/02 09:03:17;;;;;;;1.98;0.80;;;;;;;;;;5054800;28;20021;-72
2023/04/02 09:05:45;;;;;;;1.95;0.90;;;;;;;;;;5054259;28;20021;-72
2023/04/02 09:08:16;;;;;;;1.45;0.75;;;;;;;;;;5054557;28;20035;-72
2023/04/02 09:10:48;;;;;;;1.83;0.70;;;;;;;;;;5054677;28;20077;-72
2023/04/02 09:13:17;;;;;;;1.48;0.50;;;;;;;;;;5054380;28;20447;-73
2023/04/02 09:15:44;;;;;;;1.20;0.50;;;;;;;;;;5054405;28;20047;-72
2023/04/02 09:18:17;;;;;;;1.52;0.45;;;;;;;;;;5052913;28;20428;-73
2023/04/02 09:20:44;;;;;;;3.17;2.00;;;;;;;;;;5054119;28;20029;-73
2023/04/02 09:23:18;;;;;;;2.13;1.33;;;;;;;;;;5054153;28;20033;-72
2023/04/02 09:25:46;;;;;;;1.65;0.90;;;;;;;;;;5053923;28;20024;-72
2023/04/02 09:28:12;;;;;;;2.67;1.33;;;;;;;;;;5054368;28;20033;-72
2023/04/02 09:30:42;;;;;;;0.75;0.70;;;;;;;;;;5053922;28;20044;-72
2023/04/02 09:33:10;;;;;;;0.57;0.57;;;;;;;;;;5053954;28;20045;-72
2023/04/02 09:35:48;;;;;;;2.80;1.60;;;;;;;;;;5053741;28;20021;-72
2023/04/02 09:38:31;;;;;;;2.55;1.00;;;;;;;;;;5053825;28;20067;-72
2023/04/02 09:41:00;;;;;;;4.18;1.85;;;;;;;;;;5053972;28;20025;-73
2023/04/02 09:43:26;;;;;;;19.55;9.00;;;;;;;;;;5054031;28;20039;-72
2023/04/02 09:46:00;;;;;;;0.82;0.63;;;;;;;;;;5054192;28;20025;-73
2023/04/02 09:48:38;;;;;;;6.68;3.22;;;;;;;;;;5053612;28;20017;-72
2023/04/02 09:51:07;;;;;;;2.08;1.55;;;;;;;;;;5053562;28;20039;-72
2023/04/02 09:53:35;;;;;;;2.92;1.70;;;;;;;;;;5053658;28;20031;-73
2023/04/02 09:56:09;;;;;;;1.13;0.63;;;;;;;;;;5053725;28;20017;-72
2023/04/02 09:58:35;;;;;;;2.20;0.82;;;;;;;;;;5053450;28;20036;-72
2023/04/02 10:01:02;;;;;;;0.93;0.55;;;;;;;;;;5053577;28;20020;-73
2023/04/02 10:03:29;;;;;;;0.68;0.60;;;;;;;;;;5053737;28;20020;-72
2023/04/02 10:06:08;;;;;;;1.42;0.45;;;;;;;;;;5053101;28;20454;-72
2023/04/02 10:08:35;;;;;;;1.45;0.80;;;;;;;;;;5053348;28;20083;-72
2023/04/02 10:11:03;;;;;;;2.00;1.40;;;;;;;;;;5053212;28;20040;-72
2023/04/02 10:13:38;;;;;;;1.45;0.57;;;;;;;;;;5053311;28;20029;-73
2023/04/02 10:16:10;;;;;;;0.50;0.50;;;;;;;;;;5053174;28;20359;-72
2023/04/02 10:18:39;;;;;;;0.98;0.73;;;;;;;;;;5052792;28;20033;-72
2023/04/02 10:21:06;;;;;;;0.47;0.40;;;;;;;;;;5053361;28;20017;-72
2023/04/02 10:23:33;;;;;;;0.75;0.50;;;;;;;;;;5053315;28;20037;-73
2023/04/02 10:26:16;;;;;;;0.60;0.60;;;;;;;;;;5085164;28;20474;-73
2023/04/02 10:29:01;;;;;;;0.93;0.40;;;;;;;;;;5053038;28;20028;-72
2023/04/02 10:31:34;;;;;;;0.65;0.60;;;;;;;;;;5053268;28;20391;-73
2023/04/02 10:34:01;;;;;;;0.75;0.50;;;;;;;;;;5052648;28;20025;-73
2023/04/02 10:36:35;;;;;;;0.55;0.50;;;;;;;;;;5052598;28;20021;-72
2023/04/02 10:39:03;;;;;;;0.50;0.50;;;;;;;;;;5052742;28;20031;-73
2023/04/02 10:41:39;;;;;;;0.50;0.50;;;;;;;;;;5053015;28;20024;-73
2023/04/02 10:44:05;;;;;;;0.57;0.57;;;;;;;;;;5052687;28;20397;-72
2023/04/02 10:46:42;;;;;;;0.75;0.50;;;;;;;;;;5052443;28;20037;-72
2023/04/02 10:49:11;;;;;;;0.60;0.60;;;;;;;;;;5052258;28;20021;-71
2023/04/02 10:51:45;;;;;;;0.43;0.40;;;;;;;;;;5052465;28;20021;-73
2023/04/02 10:54:20;;;;;;;3.10;2.17;;;;;;;;;;5051379;28;20439;-72
2023/04/02 10:56:47;;;;;;;0.80;0.80;;;;;;;;;;5052317;28;20029;-72
2023/04/02 10:59:19;;;;;;;0.50;0.50;;;;;;;;;;5052249;28;20382;-72
2023/04/02 11:01:46;;;;;;;0.50;0.50;;;;;;;;;;5051993;28;20013;-72
2023/04/02 11:04:19;;;;;;;0.50;0.50;;;;;;;;;;5052476;28;20070;-72
2023/04/02 11:06:53;;;;;;;0.60;0.60;;;;;;;;;;5052304;28;20021;-73
2023/04/02 11:09:22;;;;;;;0.95;0.70;;;;;;;;;;5052328;28;20028;-72
2023/04/02 11:11:51;;;;;;;0.80;0.63;;;;;;;;;;5052142;28;20043;-72
2023/04/02 11:14:20;;;;;;;0.50;0.50;;;;;;;;;;5052212;28;20032;-72
2023/04/02 11:16:50;;;;;;;0.50;0.50;;;;;;;;;;5051936;28;20039;-72
2023/04/02 11:19:16;;;;;;;1.80;1.13;;;;;;;;;;5052055;28;20091;-72
2023/04/02 11:21:54;;;;;;;1.08;0.50;;;;;;;;;;5052135;28;20017;-72
2023/04/02 11:24:32;;;;;;;1.15;0.50;;;;;;;;;;5052061;28;20031;-72
2023/04/02 11:27:05;;;;;;;0.93;0.60;;;;;;;;;;5051880;28;20021;-72
2023/04/02 11:29:33;;;;;;;0.50;0.40;;;;;;;;;;5051937;28;20041;-72
2023/04/02 11:32:18;;;;;;;1.00;0.60;;;;;;;;;;5051823;28;20103;-72
2023/04/02 11:34:57;;;;;;;0.60;0.52;;;;;;;;;;5052160;28;20032;-72
2023/04/02 11:37:33;;;;;;;1.63;0.90;;;;;;;;;;5051877;28;20047;-72
2023/04/02 11:40:12;;;;;;;1.52;0.77;;;;;;;;;;5051976;28;20039;-72
2023/04/02 11:42:48;;;;;;;1.60;0.70;;;;;;;;;;5051911;28;20508;-72
2023/04/02 11:45:24;;;;;;;1.23;0.80;;;;;;;;;;5052009;28;20031;-72
2023/04/02 11:48:06;;;;;;;0.85;0.60;;;;;;;;;;5051701;28;20082;-72
2023/04/02 11:50:38;;;;;;;1.77;0.60;;;;;;;;;;5051904;28;20493;-72
2023/04/02 11:53:16;;;;;;;0.82;0.50;;;;;;;;;;5051725;28;20065;-71
2023/04/02 11:55:42;;;;;;;1.52;0.73;;;;;;;;;;5051941;28;20026;-72
2023/04/02 11:58:08;;;;;;;1.13;0.45;;;;;;;;;;5051687;28;20040;-72
2023/04/02 12:00:53;;;;;;;1.67;0.65;;;;;;;;;;5050196;28;20020;-72
2023/04/02 12:03:31;;;;;;;2.28;1.02;;;;;;;;;;5052087;28;20047;-72
2023/04/02 12:06:05;;;;;;;1.13;0.60;;;;;;;;;;5051534;28;20053;-72
2023/04/02 12:08:34;;;;;;;2.45;0.80;;;;;;;;;;5051653;28;20017;-72
2023/04/02 12:11:01;;;;;;;2.70;1.17;;;;;;;;;;5051635;28;20512;-72
2023/04/02 12:13:57;;;;;;;1.77;1.00;;;;;;;;;;5052529;28;20033;-72
2023/04/02 12:16:30;;;;;;;1.70;0.80;;;;;;;;;;5050053;28;20037;-71
2023/04/02 12:18:56;;;;;;;1.45;0.73;;;;;;;;;;5055533;28;20031;-71
2023/04/02 12:21:24;;;;;;;3.47;1.00;;;;;;;;;;5055638;28;20037;-72
2023/04/02 12:23:52;;;;;;;1.13;0.90;;;;;;;;;;5055244;28;20032;-72
2023/04/02 12:26:24;;;;;;;5.82;2.95;;;;;;;;;;5055197;28;20466;-71
2023/04/02 12:28:50;;;;;;;1.25;0.90;;;;;;;;;;5054969;28;20051;-72
2023/04/02 12:31:18;;;;;;;0.60;0.60;;;;;;;;;;5055174;28;20025;-72
2023/04/02 12:33:45;;;;;;;0.65;0.63;;;;;;;;;;5055065;28;20439;-72
2023/04/02 12:36:14;;;;;;;1.05;0.60;;;;;;;;;;5055146;28;20025;-72
2023/04/02 12:38:44;;;;;;;0.80;0.55;;;;;;;;;;5055015;28;20388;-72
2023/04/02 12:41:23;;;;;;;0.50;0.50;;;;;;;;;;5055211;28;20044;-72
2023/04/02 12:44:03;;;;;;;1.80;0.40;;;;;;;;;;5054813;28;20381;-72
2023/04/02 12:46:30;;;;;;;1.30;0.40;;;;;;;;;;5055083;28;20027;-72
2023/04/02 12:49:07;;;;;;;1.52;0.50;;;;;;;;;;5055124;28;20013;-72
2023/04/02 12:51:36;;;;;;;1.08;0.50;;;;;;;;;;5055416;28;20033;-72
2023/04/02 12:54:03;;;;;;;0.50;0.50;;;;;;;;;;5055247;28;20508;-72
2023/04/02 12:56:29;;;;;;;0.40;0.40;;;;;;;;;;5054668;28;20389;-72
2023/04/02 12:58:56;;;;;;;0.30;0.30;;;;;;;;;;5054526;28;20035;-72
2023/04/02 13:01:26;;;;;;;0.70;0.50;;;;;;;;;;5054802;28;20023;-72
2023/04/02 13:04:00;;;;;;;0.60;0.60;;;;;;;;;;5054644;28;20103;-72
2023/04/02 13:06:26;;;;;;;1.00;0.60;;;;;;;;;;5054709;28;20027;-72
2023/04/02 13:08:53;;;;;;;0.75;0.50;;;;;;;;;;5054689;28;20389;-72
2023/04/02 13:11:21;;;;;;;2.00;0.50;;;;;;;;;;5054395;28;20299;-72
2023/04/02 13:13:48;;;;;;;1.45;0.60;;;;;;;;;;5054279;28;20029;-72
2023/04/02 13:16:14;;;;;;;0.47;0.47;;;;;;;;;;5053317;28;20029;-72
2023/04/02 13:18:42;;;;;;;0.85;0.77;;;;;;;;;;5054270;28;20037;-72
2023/04/02 13:21:14;;;;;;;0.50;0.50;;;;;;;;;;5054199;28;20031;-72
2023/04/02 13:23:40;;;;;;;0.50;0.50;;;;;;;;;;5054154;28;20082;-72
2023/04/02 13:26:13;;;;;;;1.00;0.40;;;;;;;;;;5053917;28;20019;-72
2023/04/02 13:28:39;;;;;;;0.40;0.40;;;;;;;;;;5053746;28;20481;-71
2023/04/02 13:31:06;;;;;;;0.30;0.30;;;;;;;;;;5053912;28;20045;-72
2023/04/02 13:33:32;;;;;;;1.15;0.60;;;;;;;;;;5054164;28;20477;-72
2023/04/02 13:35:58;;;;;;;0.88;0.40;;;;;;;;;;5054325;28;20025;-71
2023/04/02 13:38:25;;;;;;;0.40;0.35;;;;;;;;;;5053894;28;20489;-72
2023/04/02 13:40:51;;;;;;;1.25;0.52;;;;;;;;;;5054219;28;20025;-72
2023/04/02 13:43:19;;;;;;;0.60;0.47;;;;;;;;;;5053705;28;20028;-71
2023/04/02 13:45:50;;;;;;;0.63;0.30;;;;;;;;;;5054304;28;20024;-72
2023/04/02 13:48:17;;;;;;;;;;;;;;;;;;5054299;28;20035;-72
2023/04/02 13:50:44;;;;;;;0.73;0.30;;;;;;;;;;5053694;28;20361;-72
2023/04/02 13:53:17;;;;;;;0.73;0.32;;;;;;;;;;5053791;28;20044;-72
2023/04/02 13:55:44;;;;;;;0.68;0.40;;;;;;;;;;5053178;28;20347;-72
2023/04/02 13:58:10;;;;;;;0.77;0.40;;;;;;;;;;5053540;28;20037;-72
2023/04/02 14:00:36;;;;;;;0.43;0.40;;;;;;;;;;5053431;28;20021;-71
2023/04/02 14:03:23;;;;;;;0.80;0.50;;;;;;;;;;5053690;28;20029;-70
2023/04/02 14:06:08;;;;;;;1.42;0.40;;;;;;;;;;5053358;28;20024;-72
2023/04/02 14:09:03;;;;;;;0.40;0.30;;;;;;;;;;5053241;28;20017;-72
2023/04/02 14:11:32;;;;;;;1.05;0.50;;;;;;;;;;5048530;28;20033;-72
2023/04/02 14:14:05;;;;;;;0.30;0.30;;;;;;;;;;5053167;28;20496;-72
2023/04/02 14:16:40;;;;;;;1.20;0.50;;;;;;;;;;5052963;28;20469;-72
2023/04/02 14:19:33;;;;;;;1.13;0.50;;;;;;;;;;5053043;28;20036;-72
2023/04/02 14:22:08;;;;;;;0.90;0.50;;;;;;;;;;5030869;28;20505;-72
2023/04/02 14:24:43;;;;;;;1.00;0.55;;;;;;;;;;5030875;28;20025;-72
2023/04/02 14:27:12;;;;;;;1.08;0.30;;;;;;;;;;5031075;28;20039;-72
2023/04/02 14:29:47;;;;;;;0.85;0.50;;;;;;;;;;5030678;28;20054;-72
2023/04/02 14:32:19;;;;;;;0.30;0.30;;;;;;;;;;5031001;28;20072;-72
2023/04/02 14:35:01;;;;;;;1.08;0.43;;;;;;;;;;5030762;28;20047;-73
2023/04/02 14:37:27;;;;;;;0.82;0.63;;;;;;;;;;5029949;28;20030;-72
2023/04/02 14:39:53;;;;;;;0.60;0.60;;;;;;;;;;5030438;28;20547;-72
2023/04/02 14:42:26;;;;;;;1.10;0.60;;;;;;;;;;5030463;28;20032;-72
2023/04/02 14:45:02;;;;;;;0.98;0.70;;;;;;;;;;5030522;28;20063;-72
2023/04/02 14:47:35;;;;;;;1.38;0.75;;;;;;;;;;5030558;28;20481;-71
2023/04/02 14:50:21;;;;;;;0.70;0.55;;;;;;;;;;5030794;28;20037;-72
2023/04/02 14:52:51;;;;;;;0.90;0.50;;;;;;;;;;5030370;28;20049;-72
2023/04/02 14:55:30;;;;;;;0.70;0.50;;;;;;;;;;5030490;28;20022;-72
2023/04/02 14:57:59;;;;;;;1.23;0.80;;;;;;;;;;5033767;28;20059;-72
2023/04/02 15:00:29;;;;;;;1.80;0.70;;;;;;;;;;5052179;28;20017;-72
2023/04/02 15:03:04;;;;;;;1.83;0.55;;;;;;;;;;5052288;28;20392;-72
2023/04/02 15:05:47;;;;;;;1.05;0.70;;;;;;;;;;5052308;28;20027;-72
2023/04/02 15:08:22;;;;;;;1.60;0.90;;;;;;;;;;5052268;28;20095;-72
2023/04/02 15:10:48;;;;;;;1.38;0.70;;;;;;;;;;5052360;28;20110;-71